Аэропорт: Актобе. Актобе

ICAO: UATT

METAR:
2021-04-21 20:30:00
UATT 212030Z 15004MPS CAVOK 03/M05 Q1031 R12/70D NOSIG RMK QFE753/1005
METAR:
2021-04-21 17:00:00
TAF UATT 211700Z 2118/2218 13005MPS 9999 SCT020 TX13/2212Z TN02/2202Z TEMPO 2205/2217 15010MPS 5000 -SHRA BKN020CB